Time;durP1;ratioP1;P1;durP2;ratioP2;P2;SDS_P1;SDS_P2;PMS_P1;PMS_P2;Temp;Humidity;BMP_temperature;BMP_pressure;BME280_temperature;BME280_humidity;BME280_pressure;Samples;Min_cycle;Max_cycle;Signal;HPM_P1;HPM_P2
2024/01/25 00:02:13;;;;;;;;;;;;;;;7.01;100.00;102723.09;4993312;28;19925;-72
2024/01/25 00:04:38;;;;;;;;;;;;;;;7.03;100.00;102721.25;4974513;28;20261;-72
2024/01/25 00:07:03;;;;;;;;;;;;;;;7.02;100.00;102727.53;4987997;28;20679;-72
2024/01/25 00:09:28;;;;;;;;;;;;;;;6.95;100.00;102719.75;4993700;28;20426;-72
2024/01/25 00:11:53;;;;;;;;;;;;;;;6.96;100.00;102726.84;4988109;28;19964;-72
2024/01/25 00:14:19;;;;;;;;;;;;;;;6.88;100.00;102735.13;4988575;28;20167;-72
2024/01/25 00:16:44;;;;;;;;;;;;;;;6.84;100.00;102738.81;4998483;28;19921;-72
2024/01/25 00:19:09;;;;;;;;;;;;;;;6.82;100.00;102728.16;4995200;28;19926;-72
2024/01/25 00:21:34;;;;;;;;;;;;;;;6.75;100.00;102738.16;4976388;28;19964;-73
2024/01/25 00:23:59;;;;;;;;;;;;;;;6.68;100.00;102725.91;4989720;28;19932;-72
2024/01/25 00:26:25;;;;;;;;;;;;;;;6.63;100.00;102727.00;4992799;28;19931;-72
2024/01/25 00:28:50;;;;;;;;;;;;;;;6.67;100.00;102739.31;4988929;28;19929;-72
2024/01/25 00:31:15;;;;;;;;;;;;;;;6.62;100.00;102735.91;4982858;28;19922;-72
2024/01/25 00:33:40;;;;;;;;;;;;;;;6.54;100.00;102738.81;4994839;28;19921;-72
2024/01/25 00:36:06;;;;;;;;;;;;;;;6.53;100.00;102731.75;4980960;28;19921;-72
2024/01/25 00:38:31;;;;;;;;;;;;;;;6.45;100.00;102737.31;4980164;28;19964;-72
2024/01/25 00:40:56;;;;;;;;;;;;;;;6.37;100.00;102742.00;4977980;28;19925;-72
2024/01/25 00:43:22;;;;;;;;;;;;;;;6.32;100.00;102744.81;4977377;28;20011;-72
2024/01/25 00:45:47;;;;;;;;;;;;;;;6.29;100.00;102747.56;4979525;28;20186;-72
2024/01/25 00:48:12;;;;;;;;;;;;;;;6.33;100.00;102746.56;4998369;28;20020;-72
2024/01/25 00:53:41;;;;;;;;;;;;;;;6.11;100.00;102747.16;5005806;28;19924;-72
2024/01/25 00:56:06;;;;;;;;;;;;;;;6.09;100.00;102750.78;4990351;28;19925;-72
2024/01/25 00:58:31;;;;;;;;;;;;;;;6.04;100.00;102750.03;4994000;28;19960;-72
2024/01/25 01:00:57;;;;;;;;;;;;;;;5.96;100.00;102751.09;5008637;28;20286;-72
2024/01/25 01:03:22;;;;;;;;;;;;;;;5.93;100.00;102759.19;4995083;28;20015;-72
2024/01/25 01:05:47;;;;;;;;;;;;;;;5.81;100.00;102743.53;4994149;28;20044;-71
2024/01/25 01:08:13;;;;;;;;;;;;;;;5.90;100.00;102769.94;5010352;28;20264;-71
2024/01/25 01:10:38;;;;;;;;;;;;;;;5.88;100.00;102765.56;4991682;28;19926;-72
2024/01/25 01:13:03;;;;;;;;;;;;;;;5.85;100.00;102766.53;4991503;28;20390;-72
2024/01/25 01:15:28;;;;;;;;;;;;;;;5.80;100.00;102764.00;4993298;28;20376;-71
2024/01/25 01:17:53;;;;;;;;;;;;;;;5.74;100.00;102763.25;4990878;28;20410;-72
2024/01/25 01:20:19;;;;;;;;;;;;;;;5.66;100.00;102768.78;4993802;28;19921;-71
2024/01/25 01:22:44;;;;;;;;;;;;;;;5.62;100.00;102768.00;4972752;28;19921;-72
2024/01/25 01:25:10;;;;;;;;;;;;;;;5.63;100.00;102766.22;4992292;28;19925;-72
2024/01/25 01:27:35;;;;;;;;;;;;;;;5.64;100.00;102770.63;5006331;28;20392;-71
2024/01/25 01:30:01;;;;;;;;;;;;;;;5.63;100.00;102769.75;4992219;28;20024;-72
2024/01/25 01:32:26;;;;;;;;;;;;;;;5.64;100.00;102786.63;4992428;28;19964;-71
2024/01/25 01:34:51;;;;;;;;;;;;;;;5.60;100.00;102788.50;4993310;28;19971;-71
2024/01/25 01:37:16;;;;;;;;;;;;;;;5.58;100.00;102792.97;4992211;28;20008;-72
2024/01/25 01:39:42;;;;;;;;;;;;;;;5.55;100.00;102787.72;4991904;28;19971;-71
2024/01/25 01:42:07;;;;;;;;;;;;;;;5.52;100.00;102798.47;4991737;28;20443;-71
2024/01/25 01:44:32;;;;;;;;;;;;;;;5.49;100.00;102799.44;4988215;28;20442;-71
2024/01/25 01:46:57;;;;;;;;;;;;;;;5.49;100.00;102798.53;4994798;28;20642;-71
2024/01/25 01:49:23;;;;;;;;;;;;;;;5.45;100.00;102803.06;4991343;28;19922;-72
2024/01/25 01:51:48;;;;;;;;;;;;;;;5.38;100.00;102794.38;4989679;28;19925;-72
2024/01/25 01:54:13;;;;;;;;;;;;;;;5.34;100.00;102799.78;4988278;28;19948;-71
2024/01/25 01:56:41;;;;;;;;;;;;;;;5.27;100.00;102804.41;4970597;28;21340;-72
2024/01/25 01:59:10;;;;;;;;;;;;;;;5.18;100.00;102810.81;4994472;28;19913;-71
2024/01/25 02:01:35;;;;;;;;;;;;;;;5.16;100.00;102817.09;4992952;28;19932;-71
2024/01/25 02:04:00;;;;;;;;;;;;;;;5.13;100.00;102815.38;4992874;28;19921;-71
2024/01/25 02:06:26;;;;;;;;;;;;;;;5.15;100.00;102815.34;4983626;28;19926;-71
2024/01/25 02:08:52;;;;;;;;;;;;;;;5.10;100.00;102811.00;4980053;28;19932;-71
2024/01/25 02:11:18;;;;;;;;;;;;;;;5.12;100.00;102812.75;5002214;28;19925;-71
2024/01/25 02:13:43;;;;;;;;;;;;;;;5.06;100.00;102816.41;5005089;28;19924;-71
2024/01/25 02:16:09;;;;;;;;;;;;;;;5.04;100.00;102820.91;4990119;28;20379;-71
2024/01/25 02:18:34;;;;;;;;;;;;;;;5.03;100.00;102822.69;4994449;28;20024;-71
2024/01/25 02:20:59;;;;;;;;;;;;;;;5.02;100.00;102836.91;4992564;28;19921;-71
2024/01/25 02:23:24;;;;;;;;;;;;;;;4.98;100.00;102824.59;4986537;28;20159;-71
2024/01/25 02:25:50;;;;;;;;;;;;;;;4.99;100.00;102826.34;4976239;28;19933;-71
2024/01/25 02:28:15;;;;;;;;;;;;;;;4.94;100.00;102823.78;4990206;28;19929;-71
2024/01/25 02:30:40;;;;;;;;;;;;;;;4.90;100.00;102832.75;4988668;28;20320;-71
2024/01/25 02:33:05;;;;;;;;;;;;;;;4.88;100.00;102829.25;4995308;28;20300;-71
2024/01/25 02:35:31;;;;;;;;;;;;;;;4.77;100.00;102816.16;4994272;28;19928;-71
2024/01/25 02:37:56;;;;;;;;;;;;;;;4.77;100.00;102821.50;4981945;28;19917;-71
2024/01/25 02:40:21;;;;;;;;;;;;;;;4.72;100.00;102819.84;4997305;28;19921;-71
2024/01/25 02:42:47;;;;;;;;;;;;;;;4.67;100.00;102817.25;4982607;28;20148;-71
2024/01/25 02:45:12;;;;;;;;;;;;;;;4.68;100.00;102812.84;4987022;28;19960;-72
2024/01/25 02:47:37;;;;;;;;;;;;;;;4.60;100.00;102813.00;4984484;28;19952;-71
2024/01/25 02:50:02;;;;;;;;;;;;;;;4.54;100.00;102802.47;5002283;28;19921;-72
2024/01/25 02:52:28;;;;;;;;;;;;;;;4.52;100.00;102798.97;4971539;28;20023;-72
2024/01/25 02:54:53;;;;;;;;;;;;;;;4.50;100.00;102812.31;5001551;28;19925;-72
2024/01/25 02:57:18;;;;;;;;;;;;;;;4.37;100.00;102797.50;4991777;28;19922;-71
2024/01/25 02:59:44;;;;;;;;;;;;;;;4.50;100.00;102810.53;4990368;28;19922;-71
2024/01/25 03:02:09;;;;;;;;;;;;;;;4.50;100.00;102812.31;4996150;28;20612;-72
2024/01/25 03:04:34;;;;;;;;;;;;;;;4.53;100.00;102806.03;4989482;28;19921;-71
2024/01/25 03:06:59;;;;;;;;;;;;;;;4.46;100.00;102819.47;5001407;28;20342;-71
2024/01/25 03:09:25;;;;;;;;;;;;;;;4.42;100.00;102819.56;4987183;28;19921;-71
2024/01/25 03:11:50;;;;;;;;;;;;;;;4.48;100.00;102814.13;4987892;28;20318;-72
2024/01/25 03:14:15;;;;;;;;;;;;;;;4.49;100.00;102823.88;4975753;28;19917;-71
2024/01/25 03:16:40;;;;;;;;;;;;;;;4.46;100.00;102826.59;5001224;28;20374;-71
2024/01/25 03:19:06;;;;;;;;;;;;;;;4.44;100.00;102828.41;4975294;28;19981;-71
2024/01/25 03:21:31;;;;;;;;;;;;;;;4.38;100.00;102833.84;4987544;28;20203;-71
2024/01/25 03:23:56;;;;;;;;;;;;;;;4.27;100.00;102826.06;4985871;28;20004;-71
2024/01/25 03:26:21;;;;;;;;;;;;;;;4.26;100.00;102827.81;4982511;28;19926;-71
2024/01/25 03:28:46;;;;;;;;;;;;;;;4.27;100.00;102826.94;4985880;28;19980;-71
2024/01/25 03:31:12;;;;;;;;;;;;;;;4.25;100.00;102833.19;5001561;28;20016;-71
2024/01/25 03:33:37;;;;;;;;;;;;;;;4.22;100.00;102822.63;4970857;28;19925;-72
2024/01/25 03:36:03;;;;;;;;;;;;;;;4.18;100.00;102825.31;4985954;28;19925;-72
2024/01/25 03:38:28;;;;;;;;;;;;;;;4.14;100.00;102814.78;4985546;28;20056;-71
2024/01/25 03:40:54;;;;;;;;;;;;;;;4.11;100.00;102820.16;4992491;28;20880;-71
2024/01/25 03:43:19;;;;;;;;;;;;;;;4.07;100.00;102821.13;4982472;28;19925;-71
2024/01/25 03:45:44;;;;;;;;;;;;;;;4.07;100.00;102827.31;4986142;28;20410;-71
2024/01/25 03:48:09;;;;;;;;;;;;;;;4.03;100.00;102828.28;4977081;28;20398;-71
2024/01/25 03:50:34;;;;;;;;;;;;;;;3.99;100.00;102829.25;4987317;28;20601;-72
2024/01/25 03:53:00;;;;;;;;;;;;;;;3.96;100.00;102810.69;5004518;28;20385;-71
2024/01/25 03:55:25;;;;;;;;;;;;;;;3.95;100.00;102827.53;4996528;28;19914;-71
2024/01/25 03:57:50;;;;;;;;;;;;;;;3.93;100.00;102826.69;4988614;28;19925;-71
2024/01/25 04:00:15;;;;;;;;;;;;;;;3.92;100.00;102811.63;4987699;28;19971;-72
2024/01/25 04:02:41;;;;;;;;;;;;;;;3.83;100.00;102805.59;4993902;28;19923;-71
2024/01/25 04:05:06;;;;;;;;;;;;;;;3.69;100.00;102794.34;5008701;28;19921;-72
2024/01/25 04:07:31;;;;;;;;;;;;;;;3.82;100.00;102822.44;5004639;28;19936;-71
2024/01/25 04:09:56;;;;;;;;;;;;;;;3.80;100.00;102818.06;4986251;28;19929;-71
2024/01/25 04:12:23;;;;;;;;;;;;;;;3.64;100.00;102797.06;4986553;28;19932;-71
2024/01/25 04:14:48;;;;;;;;;;;;;;;3.67;100.00;102814.72;4980562;28;19921;-71
2024/01/25 04:17:13;;;;;;;;;;;;;;;3.67;100.00;102809.41;5007146;28;19931;-71
2024/01/25 04:19:39;;;;;;;;;;;;;;;3.63;100.00;102816.56;4991721;28;20479;-71
2024/01/25 04:22:04;;;;;;;;;;;;;;;3.65;100.00;102813.88;4975182;28;19969;-71
2024/01/25 04:24:29;;;;;;;;;;;;;;;3.66;100.00;102805.00;4973797;28;19921;-71
2024/01/25 04:26:54;;;;;;;;;;;;;;;3.62;100.00;102805.97;4983225;28;20386;-71
2024/01/25 04:29:20;;;;;;;;;;;;;;;3.55;100.00;102802.53;4991484;28;20358;-72
2024/01/25 04:31:45;;;;;;;;;;;;;;;3.55;100.00;102802.53;4977131;28;19921;-71
2024/01/25 04:34:10;;;;;;;;;;;;;;;3.55;100.00;102799.88;4994341;28;19925;-72
2024/01/25 04:36:36;;;;;;;;;;;;;;;3.53;100.00;102799.91;4990569;28;21927;-71
2024/01/25 04:39:01;;;;;;;;;;;;;;;3.52;100.00;102802.56;4977183;28;19957;-71
2024/01/25 04:41:26;;;;;;;;;;;;;;;3.57;100.00;102809.59;4992872;28;20388;-71
2024/01/25 04:43:51;;;;;;;;;;;;;;;3.64;100.00;102807.69;4993534;28;19925;-71
2024/01/25 04:46:17;;;;;;;;;;;;;;;3.63;100.00;102808.59;4993321;28;19926;-71
2024/01/25 04:48:42;;;;;;;;;;;;;;;3.59;100.00;102805.09;4977983;28;19937;-71
2024/01/25 04:51:07;;;;;;;;;;;;;;;3.52;100.00;102805.22;4979509;28;19964;-71
2024/01/25 04:53:32;;;;;;;;;;;;;;;3.47;100.00;102807.97;5008708;28;20021;-71
2024/01/25 04:55:59;;;;;;;;;;;;;;;3.48;100.00;102807.06;4999045;28;19963;-71
2024/01/25 04:58:25;;;;;;;;;;;;;;;3.45;100.00;102805.31;4974176;28;19959;-72
2024/01/25 05:00:55;;;;;;;;;;;;;;;3.43;100.00;102801.84;4974979;28;20332;-71
2024/01/25 05:03:20;;;;;;;;;;;;;;;3.41;100.00;102798.34;4988934;28;19921;-71
2024/01/25 05:05:45;;;;;;;;;;;;;;;3.37;100.00;102801.94;4997446;28;20423;-71
2024/01/25 05:08:10;;;;;;;;;;;;;;;3.37;100.00;102788.66;4977078;28;19928;-71
2024/01/25 05:10:36;;;;;;;;;;;;;;;3.37;100.00;102790.44;4992938;28;19932;-71
2024/01/25 05:13:01;;;;;;;;;;;;;;;3.38;100.00;102793.06;4990395;28;19926;-71
2024/01/25 05:15:26;;;;;;;;;;;;;;;3.45;100.00;102800.03;4996617;28;20415;-71
2024/01/25 05:17:51;;;;;;;;;;;;;;;3.47;100.00;102797.34;5000729;28;20325;-71
2024/01/25 05:20:17;;;;;;;;;;;;;;;3.47;100.00;102794.69;4980311;28;20405;-71
2024/01/25 05:22:42;;;;;;;;;;;;;;;3.50;100.00;102794.66;4988855;28;20348;-71
2024/01/25 05:25:08;;;;;;;;;;;;;;;3.44;100.00;102792.94;4982839;28;19921;-71
2024/01/25 05:27:33;;;;;;;;;;;;;;;3.40;100.00;102795.69;4971891;28;19936;-71
2024/01/25 05:29:58;;;;;;;;;;;;;;;3.45;100.00;102792.06;4992884;28;20447;-71
2024/01/25 05:32:24;;;;;;;;;;;;;;;3.40;100.00;102788.63;4991945;28;20012;-71
2024/01/25 05:34:49;;;;;;;;;;;;;;;3.37;100.00;102786.00;4987926;28;20165;-71
2024/01/25 05:37:14;;;;;;;;;;;;;;;3.30;100.00;102785.25;5001976;28;19922;-71
2024/01/25 05:39:39;;;;;;;;;;;;;;;3.29;100.00;102791.44;4974714;28;19917;-71
2024/01/25 05:42:04;;;;;;;;;;;;;;;3.28;100.00;102795.00;4985125;28;19925;-71
2024/01/25 05:44:30;;;;;;;;;;;;;;;3.27;100.00;102800.31;4990849;28;20703;-71
2024/01/25 05:46:55;;;;;;;;;;;;;;;3.24;100.00;102814.53;4985504;28;20335;-71
2024/01/25 05:49:20;;;;;;;;;;;;;;;3.27;100.00;102816.25;5008639;28;19943;-71
2024/01/25 05:51:45;;;;;;;;;;;;;;;3.26;100.00;102814.50;4987092;28;20009;-71
2024/01/25 05:54:11;;;;;;;;;;;;;;;3.22;100.00;102821.66;4976851;28;19925;-71
2024/01/25 05:56:36;;;;;;;;;;;;;;;3.27;100.00;102819.81;5001259;28;19936;-72
2024/01/25 05:59:01;;;;;;;;;;;;;;;3.18;100.00;102819.94;4972914;28;19928;-71
2024/01/25 06:01:26;;;;;;;;;;;;;;;3.15;100.00;102810.25;4968229;28;19921;-71
2024/01/25 06:03:52;;;;;;;;;;;;;;;3.14;100.00;102807.59;4985561;28;20662;-71
2024/01/25 06:06:17;;;;;;;;;;;;;;;3.10;100.00;102813.84;4976746;28;19924;-71
2024/01/25 06:08:42;;;;;;;;;;;;;;;3.13;100.00;102816.47;4983542;28;19925;-71
2024/01/25 06:11:09;;;;;;;;;;;;;;;3.08;100.00;102811.22;4998622;28;19932;-71
2024/01/25 06:13:34;;;;;;;;;;;;;;;3.07;100.00;102820.09;4971492;28;20135;-71
2024/01/25 06:16:00;;;;;;;;;;;;;;;3.07;100.00;102825.41;4986027;28;20307;-71
2024/01/25 06:18:25;;;;;;;;;;;;;;;3.11;100.00;102821.81;4984207;28;20368;-71
2024/01/25 06:20:51;;;;;;;;;;;;;;;3.14;100.00;102811.16;4995465;28;20422;-71
2024/01/25 06:23:16;;;;;;;;;;;;;;;3.16;100.00;102819.06;4975909;28;20411;-71
2024/01/25 06:25:41;;;;;;;;;;;;;;;3.12;100.00;102812.94;4990940;28;20038;-72
2024/01/25 06:28:06;;;;;;;;;;;;;;;3.08;100.00;102816.53;4995869;28;20376;-71
2024/01/25 06:30:32;;;;;;;;;;;;;;;3.03;100.00;102826.34;4995885;28;20294;-71
2024/01/25 06:32:57;;;;;;;;;;;;;;;3.03;100.00;102829.00;4993208;28;20423;-71
2024/01/25 06:35:22;;;;;;;;;;;;;;;3.03;100.00;102826.34;4991193;28;20394;-71
2024/01/25 06:37:47;;;;;;;;;;;;;;;3.03;100.00;102826.34;4996039;28;20762;-71
2024/01/25 06:40:13;;;;;;;;;;;;;;;2.99;100.00;102828.16;4991324;28;19922;-71
2024/01/25 06:42:38;;;;;;;;;;;;;;;2.96;100.00;102832.63;4996461;28;19973;-71
2024/01/25 06:45:03;;;;;;;;;;;;;;;2.96;100.00;102830.84;4980028;28;20005;-71
2024/01/25 06:47:29;;;;;;;;;;;;;;;2.91;100.00;102832.69;4996065;28;19976;-71
2024/01/25 06:49:54;;;;;;;;;;;;;;;2.88;100.00;102830.06;4995122;28;20408;-71
2024/01/25 06:52:19;;;;;;;;;;;;;;;2.81;100.00;102833.69;4992782;28;20450;-71
2024/01/25 06:54:44;;;;;;;;;;;;;;;2.75;100.00;102836.47;4995404;28;19921;-71
2024/01/25 06:57:09;;;;;;;;;;;;;;;2.74;100.00;102832.06;4987993;28;20387;-71
2024/01/25 06:59:35;;;;;;;;;;;;;;;2.77;100.00;102842.63;5001201;28;20700;-71
2024/01/25 07:02:02;;;;;;;;;;;;;;;2.74;100.00;102850.63;4993406;28;20461;-71
2024/01/25 07:04:27;;;;;;;;;;;;;;;2.71;100.00;102848.84;4980793;28;19928;-71
2024/01/25 07:06:53;;;;;;;;;;;;;;;2.73;100.00;102839.13;4988241;28;19921;-71
2024/01/25 07:09:18;;;;;;;;;;;;;;;2.77;100.00;102826.72;4991828;28;19925;-71
2024/01/25 07:11:43;;;;;;;;;;;;;;;2.73;100.00;102822.34;4991972;28;19921;-71
2024/01/25 07:14:08;;;;;;;;;;;;;;;2.78;100.00;102813.41;4994380;28;19921;-71
2024/01/25 07:16:33;;;;;;;;;;;;;;;2.82;100.00;102815.13;4991997;28;19922;-71
2024/01/25 07:18:59;;;;;;;;;;;;;;;2.81;100.00;102815.13;4975069;28;19921;-71
2024/01/25 07:21:24;;;;;;;;;;;;;;;2.82;100.00;102801.88;4990852;28;19995;-71
2024/01/25 07:23:49;;;;;;;;;;;;;;;2.84;100.00;102793.88;4987249;28;19921;-71
2024/01/25 07:26:18;;;;;;;;;;;;;;;2.79;100.00;102788.63;4991375;28;20007;-71
2024/01/25 07:28:43;;;;;;;;;;;;;;;2.81;100.00;102794.78;4997442;28;19933;-71
2024/01/25 07:31:08;;;;;;;;;;;;;;;2.86;100.00;102797.38;4996622;28;19925;-71
2024/01/25 07:33:33;;;;;;;;;;;;;;;2.88;100.00;102800.03;5003454;28;19965;-71
2024/01/25 07:35:59;;;;;;;;;;;;;;;2.94;100.00;102806.13;4992092;28;20368;-71
2024/01/25 07:38:24;;;;;;;;;;;;;;;2.94;100.00;102811.44;4996034;28;20016;-71
2024/01/25 07:40:49;;;;;;;;;;;;;;;2.90;100.00;102806.19;4982750;28;19925;-71
2024/01/25 07:43:14;;;;;;;;;;;;;;;2.94;100.00;102806.13;4996197;28;19957;-71
2024/01/25 07:45:40;;;;;;;;;;;;;;;2.99;100.00;102808.69;4996856;28;20016;-71
2024/01/25 07:48:05;;;;;;;;;;;;;;;3.03;100.00;102815.72;4988707;28;20035;-71
2024/01/25 07:50:30;;;;;;;;;;;;;;;3.09;100.00;102826.25;5004561;28;19944;-71
2024/01/25 07:52:55;;;;;;;;;;;;;;;3.13;100.00;102830.63;4995897;28;20322;-71
2024/01/25 07:55:21;;;;;;;;;;;;;;;3.10;100.00;102843.94;4994393;28;20391;-71
2024/01/25 07:57:46;;;;;;;;;;;;;;;2.97;100.00;102831.72;4978927;28;21089;-71
2024/01/25 08:00:11;;;;;;;;;;;;;;;3.05;100.00;102839.56;4999918;28;19991;-71
2024/01/25 08:02:39;;;;;;;;;;;;;;;3.06;100.00;102836.91;4998724;28;20354;-71
2024/01/25 08:05:04;;;;;;;;;;;;;;;3.14;100.00;102826.19;4995759;28;20048;-71
2024/01/25 08:07:29;;;;;;;;;;;;;;;3.22;100.00;102828.72;4991982;28;19926;-71
2024/01/25 08:09:57;;;;;;;;;;;;;;;3.26;100.00;102847.25;4979168;28;19939;-71
2024/01/25 08:12:23;;;;;;;;;;;;;;;3.23;100.00;102841.97;4989785;28;19957;-71
2024/01/25 08:14:48;;;;;;;;;;;;;;;3.20;100.00;102849.09;4991282;28;19968;-71
2024/01/25 08:17:13;;;;;;;;;;;;;;;3.21;100.00;102853.50;4991513;28;19926;-71
2024/01/25 08:19:39;;;;;;;;;;;;;;;3.25;100.00;102855.22;5003322;28;19994;-71
2024/01/25 08:22:04;;;;;;;;;;;;;;;3.18;100.00;102851.78;4998154;28;19961;-71
2024/01/25 08:24:29;;;;;;;;;;;;;;;3.10;100.00;102851.91;4979239;28;20000;-71
2024/01/25 08:26:55;;;;;;;;;;;;;;;3.10;100.00;102859.88;4994836;28;19967;-71
2024/01/25 08:29:21;;;;;;;;;;;;;;;3.20;100.00;102854.41;4986744;28;19931;-71
2024/01/25 08:31:46;;;;;;;;;;;;;;;3.22;100.00;102866.78;5001773;28;20497;-71
2024/01/25 08:34:11;;;;;;;;;;;;;;;3.20;100.00;102860.59;4992887;28;19921;-71
2024/01/25 08:36:36;;;;;;;;;;;;;;;3.33;100.00;102863.06;5020174;28;19964;-71
2024/01/25 08:39:01;;;;;;;;;;;;;;;3.32;100.00;102867.50;4987545;28;20022;-71
2024/01/25 08:41:27;;;;;;;;;;;;;;;3.36;100.00;102863.03;4993418;28;19921;-71
2024/01/25 08:43:52;;;;;;;;;;;;;;;3.42;100.00;102860.28;4994787;28;19921;-71
2024/01/25 08:46:17;;;;;;;;;;;;;;;3.56;100.00;102862.72;4981092;28;20779;-71
2024/01/25 08:48:43;;;;;;;;;;;;;;;3.68;100.00;102853.69;5002791;28;20563;-71
2024/01/25 08:51:08;;;;;;;;;;;;;;;3.80;100.00;102837.53;4993620;28;19929;-71
2024/01/25 08:53:33;;;;;;;;;;;;;;;3.93;100.00;102843.53;4994989;28;20034;-71
2024/01/25 08:55:59;;;;;;;;;;;;;;;4.04;100.00;102844.19;4996973;28;19925;-71
2024/01/25 08:58:24;;;;;;;;;;;;;;;4.05;100.00;102861.03;4996267;28;20398;-71
2024/01/25 09:00:50;;;;;;;;;;;;;;;4.06;100.00;102870.75;4996645;28;19927;-71
2024/01/25 09:03:15;;;;;;;;;;;;;;;4.11;100.00;102882.16;4998390;28;19925;-71
2024/01/25 09:05:44;;;;;;;;;;;;;;;4.18;100.00;102897.13;4993936;28;19961;-71
2024/01/25 09:08:10;;;;;;;;;;;;;;;4.35;100.00;102896.81;4996511;28;19948;-71
2024/01/25 09:10:35;;;;;;;;;;;;;;;4.49;100.00;102896.56;4994389;28;19926;-71
2024/01/25 09:13:01;;;;;;;;;;;;;;;4.55;100.00;102898.22;4998081;28;20287;-71
2024/01/25 09:15:26;;;;;;;;;;;;;;;4.55;100.00;102910.66;4996787;28;19928;-71
2024/01/25 09:17:51;;;;;;;;;;;;;;;4.55;100.00;102923.94;4991613;28;19945;-71
2024/01/25 09:20:16;;;;;;;;;;;;;;;4.47;100.00;102924.09;4982799;28;19961;-71
2024/01/25 09:22:42;;;;;;;;;;;;;;;4.53;100.00;102913.31;4987720;28;20000;-72
2024/01/25 09:25:07;;;;;;;;;;;;;;;4.65;100.00;102921.09;4995061;28;20459;-71
2024/01/25 09:27:33;;;;;;;;;;;;;;;4.64;100.00;102916.66;4978641;28;20367;-71
2024/01/25 09:29:58;;;;;;;;;;;;;;;4.77;100.00;102909.31;4967989;28;20028;-71
2024/01/25 09:32:23;;;;;;;;;;;;;;;4.90;100.00;102909.94;4993314;28;20572;-71
2024/01/25 09:34:48;;;;;;;;;;;;;;;4.98;100.00;102911.56;4986828;28;20027;-72
2024/01/25 09:37:14;;;;;;;;;;;;;;;5.03;100.00;102918.53;4975840;28;19914;-71
2024/01/25 09:39:40;;;;;;;;;;;;;;;5.27;100.00;102932.25;4997844;28;19917;-71
2024/01/25 09:42:05;;;;;;;;;;;;;;;5.42;100.00;102931.03;4996673;28;19948;-72
2024/01/25 09:44:30;;;;;;;;;;;;;;;5.55;100.00;102932.50;4979498;28;19921;-72
2024/01/25 09:46:56;;;;;;;;;;;;;;;5.43;100.00;102926.59;5000938;28;19972;-72
2024/01/25 09:49:21;;;;;;;;;;;;;;;5.54;100.00;102912.09;4999390;28;20342;-72
2024/01/25 09:51:48;;;;;;;;;;;;;;;5.22;100.00;102896.84;4998383;28;20490;-71
2024/01/25 09:54:13;;;;;;;;;;;;;;;5.39;100.00;102924.00;4989655;28;19968;-71
2024/01/25 09:56:38;;;;;;;;;;;;;;;5.50;100.00;102933.50;4995067;28;20359;-71
2024/01/25 09:59:04;;;;;;;;;;;;;;;5.48;100.00;102930.91;4983948;28;19924;-72
2024/01/25 10:01:29;;;;;;;;;;;;;;;5.60;100.00;102924.41;4978732;28;19988;-72
2024/01/25 10:03:57;;;;;;;;;;;;;;;5.81;100.00;102928.34;4995780;28;19921;-71
2024/01/25 10:06:23;;;;;;;;;;;;;;;5.95;100.00;102929.78;4996246;28;20006;-71
2024/01/25 10:08:48;;;;;;;;;;;;;;;6.03;100.00;102932.28;4996414;28;20020;-72
2024/01/25 10:11:14;;;;;;;;;;;;;;;6.19;100.00;102930.13;4996158;28;19922;-71
2024/01/25 10:13:47;;;;;;;;;;;;;;;6.32;100.00;102928.00;4997129;28;19925;-72
2024/01/25 10:16:15;;;;;;;;;;;;;;;6.40;100.00;102915.34;4980443;28;19968;-72
2024/01/25 10:18:42;;;;;;;;;;;;;;;6.38;100.00;102898.50;4986086;28;19979;-71
2024/01/25 10:21:08;;;;;;;;;;;;;;;6.32;100.00;102894.22;5001262;28;20444;-72
2024/01/25 10:23:33;;;;;;;;;;;;;;;6.35;100.00;102910.16;4972841;28;19927;-72
2024/01/25 10:25:59;;;;;;;;;;;;;;;6.44;100.00;102909.03;5000959;28;20061;-72
2024/01/25 10:28:25;;;;;;;;;;;;;;;6.47;100.00;102910.72;4992364;28;19929;-71
2024/01/25 10:30:50;;;;;;;;;;;;;;;6.58;100.00;102905.97;4984677;28;19926;-72
2024/01/25 10:33:15;;;;;;;;;;;;;;;6.72;100.00;102906.44;4990853;28;19937;-72
2024/01/25 10:35:41;;;;;;;;;;;;;;;6.85;100.00;102919.47;5000456;28;19925;-72
2024/01/25 10:38:06;;;;;;;;;;;;;;;6.97;100.00;102928.91;5002396;28;19949;-72
2024/01/25 10:40:31;;;;;;;;;;;;;;;7.07;100.00;102930.38;5001813;28;19959;-72
2024/01/25 10:42:57;;;;;;;;;;;;;;;7.00;100.00;102926.16;5000346;28;20016;-72
2024/01/25 10:45:22;;;;;;;;;;;;;;;6.88;100.00;102922.03;4995117;28;19932;-72
2024/01/25 10:47:48;;;;;;;;;;;;;;;6.69;100.00;102909.19;5001279;28;19932;-71
2024/01/25 10:50:13;;;;;;;;;;;;;;;6.61;100.00;102908.56;5011561;28;19987;-71
2024/01/25 10:52:39;;;;;;;;;;;;;;;6.59;100.00;102905.91;5007663;28;19944;-71
2024/01/25 10:55:05;;;;;;;;;;;;;;;6.69;100.00;102897.66;4988077;28;20008;-71
2024/01/25 10:57:43;;;;;;;;;;;;;;;6.58;100.00;102881.94;5004157;28;19969;-71
2024/01/25 11:00:12;;;;;;;;;;;;;;;6.39;100.00;102900.25;4996809;28;19928;-72
2024/01/25 11:02:39;;;;;;;;;;;;;;;6.49;100.00;102898.22;4986464;28;19921;-72
2024/01/25 11:05:10;;;;;;;;;;;;;;;6.55;100.00;102898.03;4990654;28;19927;-72
2024/01/25 11:07:45;;;;;;;;;;;;;;;6.64;100.00;102889.75;4980997;28;19991;-72
2024/01/25 11:10:20;;;;;;;;;;;;;;;6.59;100.00;102884.56;5003440;28;20368;-72
2024/01/25 11:12:55;;;;;;;;;;;;;;;6.60;100.00;102874.78;4997381;28;19918;-72
2024/01/25 11:15:22;;;;;;;;;;;;;;;6.72;100.00;102874.41;4999221;28;19968;-72
2024/01/25 11:17:50;;;;;;;;;;;;;;;6.78;100.00;102872.47;4998576;28;19918;-71
2024/01/25 11:20:15;;;;;;;;;;;;;;;6.78;100.00;102864.47;4985593;28;19925;-72
2024/01/25 11:22:44;;;;;;;;;;;;;;;6.89;100.00;102857.00;4993895;28;20375;-71
2024/01/25 11:25:20;;;;;;;;;;;;;;;6.88;100.00;102872.16;4983247;28;19922;-71
2024/01/25 11:27:45;;;;;;;;;;;;;;;6.97;100.00;102862.13;4996636;28;19929;-72
2024/01/25 11:30:11;;;;;;;;;;;;;;;6.94;100.00;102868.44;4987400;28;19917;-72
2024/01/25 11:32:36;;;;;;;;;;;;;;;7.01;100.00;102853.13;4986804;28;19922;-72
2024/01/25 11:35:02;;;;;;;;;;;;;;;6.96;100.00;102831.88;4983720;28;19944;-72
2024/01/25 11:37:27;;;;;;;;;;;;;;;6.93;100.00;102821.28;4995548;28;19960;-71
2024/01/25 11:39:53;;;;;;;;;;;;;;;6.88;100.00;102829.44;4985366;28;20059;-71
2024/01/25 11:42:18;;;;;;;;;;;;;;;7.00;100.00;102830.00;5014156;28;20028;-71
2024/01/25 11:44:43;;;;;;;;;;;;;;;6.95;100.00;102837.28;4996667;28;19941;-72
2024/01/25 11:47:09;;;;;;;;;;;;;;;6.92;100.00;102842.69;4984600;28;19921;-72
2024/01/25 11:49:34;;;;;;;;;;;;;;;7.05;100.00;102834.25;4985450;28;19959;-72
2024/01/25 11:52:02;;;;;;;;;;;;;;;7.15;100.00;102834.00;4995508;28;21138;-72
2024/01/25 11:54:27;;;;;;;;;;;;;;;7.16;100.00;102814.34;4979995;28;19924;-71
2024/01/25 11:56:52;;;;;;;;;;;;;;;7.12;100.00;102802.88;4993395;28;19921;-72
2024/01/25 11:59:17;;;;;;;;;;;;;;;7.06;100.00;102803.06;4997356;28;19921;-71
2024/01/25 12:01:42;;;;;;;;;;;;;;;7.12;100.00;102816.25;5002005;28;20386;-72
2024/01/25 12:04:08;;;;;;;;;;;;;;;7.14;100.00;102822.41;4993510;28;20007;-72
2024/01/25 12:06:33;;;;;;;;;;;;;;;7.11;100.00;102822.50;4989623;28;19925;-72
2024/01/25 12:09:08;;;;;;;;;;;;;;;7.41;100.00;102810.91;4985989;28;19933;-72
2024/01/25 12:11:34;;;;;;;;;;;;;;;7.50;100.00;102814.13;4992593;28;19922;-72
2024/01/25 12:13:59;;;;;;;;;;;;;;;7.45;100.00;102805.41;5016418;28;20434;-72
2024/01/25 12:16:24;;;;;;;;;;;;;;;7.33;100.00;102811.13;4995542;28;20376;-72
2024/01/25 12:18:49;;;;;;;;;;;;;;;7.27;100.00;102798.00;5002979;28;20350;-72
2024/01/25 12:21:14;;;;;;;;;;;;;;;7.20;100.00;102800.84;4999668;28;20276;-72
2024/01/25 12:23:40;;;;;;;;;;;;;;;7.11;100.00;102777.09;5003340;28;20334;-72
2024/01/25 12:26:06;;;;;;;;;;;;;;;7.14;100.00;102793.03;5001878;28;19933;-72
2024/01/25 12:28:34;;;;;;;;;;;;;;;7.21;100.00;102785.69;4997846;28;20435;-71
2024/01/25 12:31:00;;;;;;;;;;;;;;;7.34;100.00;102779.03;4982293;28;19963;-72